Hauptseite
METAR-TAF:

METAR-TAF

Flughäfen :

Nikola-Tesla-Flughafen Belgrad

Belgrad, Serbien

Breite: 44-49N, Länge: 020-17E, Höhe: 96 m

Beobachtung

Neuester Wetterbericht von vor 22 Minuten, um 06:00 UTC
Wind 5 kt aus Südwest
Temperatur 8°C
Luftfeuchtigkeit 53%
Luftdruck 1024 hPa
Sichtweite 10 km oder mehr
keine Wolken unter 1500 m und keine Kumulonimbus oder Gewitterwolken

METAR: LYBE 090600Z 22005KT CAVOK 08/M01 Q1024 NOSIG

Zeit: 08:22 (06:22 UTC)

Prognose

Neuester Wetterbericht von vor 1 Stunde und 22 Minuten, um 05:00 UTC
Gültige Prognose vom 09 um 06 UTC bis 10 um 06 UTC
Wind 5 kt aus Nordost
Sichtweite 10 km oder mehr
keine Wolken unter 1500 m und keine Kumulonimbus oder Gewitterwolken

TAF: LYBE 090500Z 0906/1006 04005KT CAVOK TX23/0913Z TN07/1004Z

Wetterbeobachtungen und Prognosen von mehr als 4000 Flughäfen (METAR und TAF Bericht).

Die verfügbaren Stationen werden durch gelbe und rote Markierungen auf der Karte dargestellt.

Führen Sie die Maus auf sie, um den Namen der Station zu sehen.

Darauf klicken, um die Beobachtung von Wetterbeobachtungen und Prognosen zu sehen.

Um die Karte zu ändern : klicken Sie auf den grünen Tasten mit einem schwarzen Kreuz Zum Vergrößern, auf den grünen Button mit einem Gedankenstrich zu verkleinern, oder auf die grünen Pfeile für benachbarte Karten.


METAR-TAF: